sensor_id;sensor_type;location;lat;lon;timestamp;pressure;altitude;pressure_sealevel;temperature;humidity
71145;BME280;58812;47.698;17.726;2023-01-30T00:01:03;100893.31;;;-4.36;100.00
71145;BME280;58812;47.698;17.726;2023-01-30T00:03:29;100891.37;;;-4.29;99.92
71145;BME280;58812;47.698;17.726;2023-01-30T00:05:54;100889.72;;;-4.32;99.84
71145;BME280;58812;47.698;17.726;2023-01-30T00:08:20;100880.94;;;-4.29;99.66
71145;BME280;58812;47.698;17.726;2023-01-30T00:10:46;100884.41;;;-4.28;99.62
71145;BME280;58812;47.698;17.726;2023-01-30T00:13:13;100882.94;;;-4.40;99.59
71145;BME280;58812;47.698;17.726;2023-01-30T00:15:39;100883.00;;;-4.42;99.51
71145;BME280;58812;47.698;17.726;2023-01-30T00:18:05;100876.16;;;-4.47;99.92
71145;BME280;58812;47.698;17.726;2023-01-30T00:20:30;100876.25;;;-4.50;100.00
71145;BME280;58812;47.698;17.726;2023-01-30T00:22:56;100879.53;;;-4.42;100.00
71145;BME280;58812;47.698;17.726;2023-01-30T00:25:23;100875.94;;;-4.38;100.00
71145;BME280;58812;47.698;17.726;2023-01-30T00:27:49;100864.66;;;-4.39;100.00
71145;BME280;58812;47.698;17.726;2023-01-30T00:30:14;100864.59;;;-4.37;100.00
71145;BME280;58812;47.698;17.726;2023-01-30T00:32:40;100868.97;;;-4.39;100.00
71145;BME280;58812;47.698;17.726;2023-01-30T00:35:05;100862.28;;;-4.49;100.00
71145;BME280;58812;47.698;17.726;2023-01-30T00:37:31;100867.53;;;-4.51;100.00
71145;BME280;58812;47.698;17.726;2023-01-30T00:39:56;100862.28;;;-4.49;100.00
71145;BME280;58812;47.698;17.726;2023-01-30T00:42:22;100851.69;;;-4.45;100.00
71145;BME280;58812;47.698;17.726;2023-01-30T00:45:09;100850.37;;;-4.63;100.00
71145;BME280;58812;47.698;17.726;2023-01-30T00:47:54;100852.72;;;-4.50;100.00
71145;BME280;58812;47.698;17.726;2023-01-30T00:50:19;100851.84;;;-4.49;100.00
71145;BME280;58812;47.698;17.726;2023-01-30T00:52:44;100855.34;;;-4.50;100.00
71145;BME280;58812;47.698;17.726;2023-01-30T00:55:10;100853.44;;;-4.44;100.00
71145;BME280;58812;47.698;17.726;2023-01-30T00:57:35;100852.03;;;-4.59;100.00
71145;BME280;58812;47.698;17.726;2023-01-30T01:00:01;100844.94;;;-4.53;100.00
71145;BME280;58812;47.698;17.726;2023-01-30T01:02:29;100848.38;;;-4.50;100.00
71145;BME280;58812;47.698;17.726;2023-01-30T01:04:55;100853.44;;;-4.81;100.00
71145;BME280;58812;47.698;17.726;2023-01-30T01:07:20;100845.09;;;-4.97;100.00
71145;BME280;58812;47.698;17.726;2023-01-30T01:09:45;100849.53;;;-5.00;100.00
71145;BME280;58812;47.698;17.726;2023-01-30T01:12:11;100844.03;;;-4.88;100.00
71145;BME280;58812;47.698;17.726;2023-01-30T01:14:36;100836.94;;;-4.83;100.00
71145;BME280;58812;47.698;17.726;2023-01-30T01:17:02;100835.12;;;-4.79;100.00
71145;BME280;58812;47.698;17.726;2023-01-30T01:19:27;100819.34;;;-4.75;100.00
71145;BME280;58812;47.698;17.726;2023-01-30T01:21:53;100816.84;;;-4.79;100.00
71145;BME280;58812;47.698;17.726;2023-01-30T01:24:18;100808.12;;;-4.78;100.00
71145;BME280;58812;47.698;17.726;2023-01-30T01:26:44;100808.88;;;-4.73;100.00
71145;BME280;58812;47.698;17.726;2023-01-30T01:29:14;100796.66;;;-4.73;100.00
71145;BME280;58812;47.698;17.726;2023-01-30T01:31:40;100796.72;;;-4.76;100.00
71145;BME280;58812;47.698;17.726;2023-01-30T01:34:05;100795.97;;;-4.79;100.00
71145;BME280;58812;47.698;17.726;2023-01-30T01:36:31;100795.97;;;-4.79;100.00
71145;BME280;58812;47.698;17.726;2023-01-30T01:38:57;100787.38;;;-4.85;100.00
71145;BME280;58812;47.698;17.726;2023-01-30T01:41:22;100779.53;;;-4.85;100.00
71145;BME280;58812;47.698;17.726;2023-01-30T01:46:50;100784.50;;;-4.74;100.00
71145;BME280;58812;47.698;17.726;2023-01-30T01:49:30;100774.88;;;-4.72;100.00
71145;BME280;58812;47.698;17.726;2023-01-30T01:52:12;100770.62;;;-4.76;100.00
71145;BME280;58812;47.698;17.726;2023-01-30T01:54:49;100767.25;;;-4.81;100.00
71145;BME280;58812;47.698;17.726;2023-01-30T01:57:24;100756.75;;;-4.78;100.00
71145;BME280;58812;47.698;17.726;2023-01-30T01:59:55;100758.44;;;-4.77;100.00
71145;BME280;58812;47.698;17.726;2023-01-30T02:02:22;100755.03;;;-4.79;100.00
71145;BME280;58812;47.698;17.726;2023-01-30T02:04:51;100756.03;;;-4.85;100.00
71145;BME280;58812;47.698;17.726;2023-01-30T02:10:19;100748.16;;;-4.83;100.00
71145;BME280;58812;47.698;17.726;2023-01-30T02:12:45;100744.75;;;-4.85;100.00
71145;BME280;58812;47.698;17.726;2023-01-30T02:15:11;100749.75;;;-4.77;100.00
71145;BME280;58812;47.698;17.726;2023-01-30T02:17:36;100742.72;;;-4.74;100.00
71145;BME280;58812;47.698;17.726;2023-01-30T02:23:09;100739.06;;;-4.67;100.00
71145;BME280;58812;47.698;17.726;2023-01-30T02:31:37;100737.25;;;-4.65;100.00
71145;BME280;58812;47.698;17.726;2023-01-30T02:42:13;100717.63;;;-4.79;100.00
71145;BME280;58812;47.698;17.726;2023-01-30T02:44:57;100709.78;;;-4.81;100.00
71145;BME280;58812;47.698;17.726;2023-01-30T02:47:28;100707.13;;;-4.78;100.00
71145;BME280;58812;47.698;17.726;2023-01-30T02:50:17;100705.56;;;-4.85;100.00
71145;BME280;58812;47.698;17.726;2023-01-30T02:52:43;100713.41;;;-4.85;100.00
71145;BME280;58812;47.698;17.726;2023-01-30T02:55:18;100705.47;;;-4.82;100.00
71145;BME280;58812;47.698;17.726;2023-01-30T02:57:44;100698.75;;;-4.91;100.00
71145;BME280;58812;47.698;17.726;2023-01-30T03:00:10;100706.75;;;-4.98;100.00
71145;BME280;58812;47.698;17.726;2023-01-30T03:02:59;100705.03;;;-4.99;100.00
71145;BME280;58812;47.698;17.726;2023-01-30T03:05:50;100687.59;;;-4.97;100.00
71145;BME280;58812;47.698;17.726;2023-01-30T03:11:06;100679.72;;;-4.96;100.00
71145;BME280;58812;47.698;17.726;2023-01-30T03:14:41;100670.34;;;-5.04;100.00
71145;BME280;58812;47.698;17.726;2023-01-30T03:16:39;100673.88;;;-5.05;100.00
71145;BME280;58812;47.698;17.726;2023-01-30T03:19:09;100672.31;;;-5.13;100.00
71145;BME280;58812;47.698;17.726;2023-01-30T03:21:43;100660.00;;;-5.07;100.00
71145;BME280;58812;47.698;17.726;2023-01-30T03:24:10;100662.53;;;-5.04;100.00
71145;BME280;58812;47.698;17.726;2023-01-30T03:26:41;100658.28;;;-5.08;100.00
71145;BME280;58812;47.698;17.726;2023-01-30T03:29:08;100652.38;;;-5.15;100.00
71145;BME280;58812;47.698;17.726;2023-01-30T03:31:33;100646.34;;;-5.19;100.00
71145;BME280;58812;47.698;17.726;2023-01-30T03:33:59;100641.28;;;-5.25;100.00
71145;BME280;58812;47.698;17.726;2023-01-30T03:36:24;100650.31;;;-5.38;100.00
71145;BME280;58812;47.698;17.726;2023-01-30T03:38:50;100651.31;;;-5.44;100.00
71145;BME280;58812;47.698;17.726;2023-01-30T03:41:16;100643.44;;;-5.42;100.00
71145;BME280;58812;47.698;17.726;2023-01-30T03:43:42;100643.31;;;-5.36;100.00
71145;BME280;58812;47.698;17.726;2023-01-30T03:46:07;100643.44;;;-5.42;100.00
71145;BME280;58812;47.698;17.726;2023-01-30T03:48:32;100639.03;;;-5.40;100.00
71145;BME280;58812;47.698;17.726;2023-01-30T03:50:58;100640.03;;;-5.46;100.00
71145;BME280;58812;47.698;17.726;2023-01-30T03:53:23;100623.37;;;-5.39;100.00
71145;BME280;58812;47.698;17.726;2023-01-30T03:55:49;100614.66;;;-5.38;100.00
71145;BME280;58812;47.698;17.726;2023-01-30T03:58:14;100621.56;;;-5.37;100.00
71145;BME280;58812;47.698;17.726;2023-01-30T04:00:40;100625.38;;;-5.50;100.00
71145;BME280;58812;47.698;17.726;2023-01-30T04:03:05;100615.72;;;-5.46;100.00
71145;BME280;58812;47.698;17.726;2023-01-30T04:05:31;100609.03;;;-5.56;100.00
71145;BME280;58812;47.698;17.726;2023-01-30T04:07:57;100609.19;;;-5.62;100.00
71145;BME280;58812;47.698;17.726;2023-01-30T04:10:23;100602.34;;;-5.68;100.00
71145;BME280;58812;47.698;17.726;2023-01-30T04:12:48;100599.75;;;-5.68;100.00
71145;BME280;58812;47.698;17.726;2023-01-30T04:15:14;100610.19;;;-5.70;100.00
71145;BME280;58812;47.698;17.726;2023-01-30T04:17:42;100607.81;;;-5.79;100.00
71145;BME280;58812;47.698;17.726;2023-01-30T04:20:07;100605.88;;;-5.71;100.00
71145;BME280;58812;47.698;17.726;2023-01-30T04:22:33;100603.16;;;-5.66;100.00
71145;BME280;58812;47.698;17.726;2023-01-30T04:24:58;100605.06;;;-5.73;100.00
71145;BME280;58812;47.698;17.726;2023-01-30T04:27:24;100598.03;;;-5.69;100.00
71145;BME280;58812;47.698;17.726;2023-01-30T04:29:49;100598.12;;;-5.74;100.00
71145;BME280;58812;47.698;17.726;2023-01-30T04:32:15;100595.12;;;-5.93;100.00
71145;BME280;58812;47.698;17.726;2023-01-30T04:34:40;100590.50;;;-5.83;100.00
71145;BME280;58812;47.698;17.726;2023-01-30T04:37:08;100592.22;;;-5.82;100.00
71145;BME280;58812;47.698;17.726;2023-01-30T04:39:33;100580.00;;;-5.78;100.00
71145;BME280;58812;47.698;17.726;2023-01-30T04:41:58;100576.22;;;-5.67;100.00
71145;BME280;58812;47.698;17.726;2023-01-30T04:44:24;100576.53;;;-5.79;100.00
71145;BME280;58812;47.698;17.726;2023-01-30T04:46:49;100576.59;;;-5.82;100.00
71145;BME280;58812;47.698;17.726;2023-01-30T04:49:15;100565.94;;;-5.73;100.00
71145;BME280;58812;47.698;17.726;2023-01-30T04:51:40;100556.28;;;-5.68;100.00
71145;BME280;58812;47.698;17.726;2023-01-30T04:54:05;100546.94;;;-5.78;100.00
71145;BME280;58812;47.698;17.726;2023-01-30T04:56:31;100545.28;;;-5.82;100.00
71145;BME280;58812;47.698;17.726;2023-01-30T04:58:56;100544.59;;;-5.87;100.00
71145;BME280;58812;47.698;17.726;2023-01-30T05:01:33;100541.13;;;-5.89;100.00
71145;BME280;58812;47.698;17.726;2023-01-30T05:04:00;100551.50;;;-5.86;100.00
71145;BME280;58812;47.698;17.726;2023-01-30T05:06:26;100536.06;;;-5.94;100.00
71145;BME280;58812;47.698;17.726;2023-01-30T05:08:54;100541.19;;;-5.91;100.00
71145;BME280;58812;47.698;17.726;2023-01-30T05:11:21;100555.03;;;-5.88;100.00
71145;BME280;58812;47.698;17.726;2023-01-30T05:13:47;100542.88;;;-5.89;100.00
71145;BME280;58812;47.698;17.726;2023-01-30T05:16:13;100546.25;;;-5.84;100.00
71145;BME280;58812;47.698;17.726;2023-01-30T05:18:39;100558.44;;;-5.85;100.00
71145;BME280;58812;47.698;17.726;2023-01-30T05:21:10;100565.44;;;-5.88;100.00
71145;BME280;58812;47.698;17.726;2023-01-30T05:23:36;100568.03;;;-5.87;100.00
71145;BME280;58812;47.698;17.726;2023-01-30T05:26:01;100564.44;;;-5.83;100.00
71145;BME280;58812;47.698;17.726;2023-01-30T05:28:28;100559.03;;;-5.75;100.00
71145;BME280;58812;47.698;17.726;2023-01-30T05:30:54;100549.69;;;-5.84;100.00
71145;BME280;58812;47.698;17.726;2023-01-30T05:33:20;100548.69;;;-5.78;100.00
71145;BME280;58812;47.698;17.726;2023-01-30T05:35:49;100559.19;;;-5.80;100.00
71145;BME280;58812;47.698;17.726;2023-01-30T05:38:15;100556.53;;;-5.78;100.00
71145;BME280;58812;47.698;17.726;2023-01-30T05:40:41;100545.09;;;-5.73;100.00
71145;BME280;58812;47.698;17.726;2023-01-30T05:43:06;100550.09;;;-5.65;100.00
71145;BME280;58812;47.698;17.726;2023-01-30T05:45:32;100545.53;;;-5.55;100.00
71145;BME280;58812;47.698;17.726;2023-01-30T05:47:57;100547.91;;;-5.46;100.00
71145;BME280;58812;47.698;17.726;2023-01-30T05:50:23;100550.44;;;-5.43;100.00
71145;BME280;58812;47.698;17.726;2023-01-30T05:52:48;100554.69;;;-5.39;100.00
71145;BME280;58812;47.698;17.726;2023-01-30T05:55:14;100551.94;;;-5.34;100.00
71145;BME280;58812;47.698;17.726;2023-01-30T05:57:39;100540.25;;;-5.20;100.00
71145;BME280;58812;47.698;17.726;2023-01-30T06:00:05;100542.91;;;-5.21;100.00
71145;BME280;58812;47.698;17.726;2023-01-30T06:02:31;100531.47;;;-5.16;100.00
71145;BME280;58812;47.698;17.726;2023-01-30T06:04:56;100533.84;;;-5.08;100.00
71145;BME280;58812;47.698;17.726;2023-01-30T06:07:22;100547.66;;;-5.03;100.00
71145;BME280;58812;47.698;17.726;2023-01-30T06:09:47;100541.34;;;-4.96;100.00
71145;BME280;58812;47.698;17.726;2023-01-30T06:12:13;100541.97;;;-4.88;100.00
71145;BME280;58812;47.698;17.726;2023-01-30T06:14:38;100536.53;;;-4.78;100.00
71145;BME280;58812;47.698;17.726;2023-01-30T06:17:04;100540.59;;;-4.70;100.00
71145;BME280;58812;47.698;17.726;2023-01-30T06:19:29;100533.44;;;-4.62;100.00
71145;BME280;58812;47.698;17.726;2023-01-30T06:21:55;100534.09;;;-4.55;100.00
71145;BME280;58812;47.698;17.726;2023-01-30T06:24:20;100516.53;;;-4.50;100.00
71145;BME280;58812;47.698;17.726;2023-01-30T06:26:45;100523.47;;;-4.49;100.00
71145;BME280;58812;47.698;17.726;2023-01-30T06:29:11;100515.56;;;-4.47;100.00
71145;BME280;58812;47.698;17.726;2023-01-30T06:31:36;100512.91;;;-4.46;100.00
71145;BME280;58812;47.698;17.726;2023-01-30T06:34:02;100522.31;;;-4.39;100.00
71145;BME280;58812;47.698;17.726;2023-01-30T06:36:27;100517.75;;;-4.34;100.00
71145;BME280;58812;47.698;17.726;2023-01-30T06:38:53;100512.47;;;-4.31;100.00
71145;BME280;58812;47.698;17.726;2023-01-30T06:41:18;100513.25;;;-4.28;100.00
71145;BME280;58812;47.698;17.726;2023-01-30T06:43:44;100509.78;;;-4.29;100.00
71145;BME280;58812;47.698;17.726;2023-01-30T06:46:09;100510.59;;;-4.27;100.00
71145;BME280;58812;47.698;17.726;2023-01-30T06:48:34;100513.03;;;-4.21;100.00
71145;BME280;58812;47.698;17.726;2023-01-30T06:51:00;100517.25;;;-4.17;100.00
71145;BME280;58812;47.698;17.726;2023-01-30T06:53:25;100524.91;;;-4.11;100.00
71145;BME280;58812;47.698;17.726;2023-01-30T06:55:58;100526.53;;;-4.07;100.00
71145;BME280;58812;47.698;17.726;2023-01-30T06:58:24;100517.69;;;-4.03;100.00
71145;BME280;58812;47.698;17.726;2023-01-30T07:00:49;100527.25;;;-4.01;100.00
71145;BME280;58812;47.698;17.726;2023-01-30T07:03:16;100523.66;;;-3.99;100.00
71145;BME280;58812;47.698;17.726;2023-01-30T07:05:43;100515.69;;;-3.94;100.00
71145;BME280;58812;47.698;17.726;2023-01-30T07:08:09;100515.69;;;-3.94;100.00
71145;BME280;58812;47.698;17.726;2023-01-30T07:10:35;100517.09;;;-3.84;100.00
71145;BME280;58812;47.698;17.726;2023-01-30T07:13:01;100522.09;;;-3.77;100.00
71145;BME280;58812;47.698;17.726;2023-01-30T07:15:27;100516.50;;;-3.66;100.00
71145;BME280;58812;47.698;17.726;2023-01-30T07:17:52;100517.09;;;-3.58;100.00
71145;BME280;58812;47.698;17.726;2023-01-30T07:20:18;100510.00;;;-3.54;100.00
71145;BME280;58812;47.698;17.726;2023-01-30T07:22:54;100504.66;;;-3.51;100.00
71145;BME280;58812;47.698;17.726;2023-01-30T07:25:22;100511.50;;;-3.47;100.00
71145;BME280;58812;47.698;17.726;2023-01-30T07:28:00;100501.66;;;-3.40;100.00
71145;BME280;58812;47.698;17.726;2023-01-30T07:30:28;100480.66;;;-3.37;100.00
71145;BME280;58812;47.698;17.726;2023-01-30T07:32:55;100474.34;;;-3.32;100.00
71145;BME280;58812;47.698;17.726;2023-01-30T07:35:26;100465.50;;;-3.29;100.00
71145;BME280;58812;47.698;17.726;2023-01-30T07:37:52;100469.69;;;-3.24;100.00
71145;BME280;58812;47.698;17.726;2023-01-30T07:40:18;100464.59;;;-3.28;100.00
71145;BME280;58812;47.698;17.726;2023-01-30T07:42:58;100460.97;;;-3.24;100.00
71145;BME280;58812;47.698;17.726;2023-01-30T07:45:24;100465.13;;;-3.18;100.00
71145;BME280;58812;47.698;17.726;2023-01-30T07:47:52;100475.47;;;-3.15;100.00
71145;BME280;58812;47.698;17.726;2023-01-30T07:50:18;100479.56;;;-3.07;100.00
71145;BME280;58812;47.698;17.726;2023-01-30T07:52:44;100472.47;;;-3.05;100.00
71145;BME280;58812;47.698;17.726;2023-01-30T07:55:09;100466.16;;;-2.99;100.00
71145;BME280;58812;47.698;17.726;2023-01-30T07:57:34;100455.53;;;-2.94;100.00
71145;BME280;58812;47.698;17.726;2023-01-30T08:00:00;100454.37;;;-2.87;100.00
71145;BME280;58812;47.698;17.726;2023-01-30T08:02:25;100457.91;;;-2.88;100.00
71145;BME280;58812;47.698;17.726;2023-01-30T08:04:51;100452.56;;;-2.85;100.00
71145;BME280;58812;47.698;17.726;2023-01-30T08:07:16;100451.38;;;-2.77;100.00
71145;BME280;58812;47.698;17.726;2023-01-30T08:09:42;100452.31;;;-2.79;100.00
71145;BME280;58812;47.698;17.726;2023-01-30T08:12:07;100453.00;;;-2.74;100.00
71145;BME280;58812;47.698;17.726;2023-01-30T08:14:32;100443.44;;;-2.75;100.00
71145;BME280;58812;47.698;17.726;2023-01-30T08:16:58;100441.44;;;-2.69;100.00
71145;BME280;58812;47.698;17.726;2023-01-30T08:19:23;100439.44;;;-2.62;100.00
71145;BME280;58812;47.698;17.726;2023-01-30T08:21:49;100439.25;;;-2.57;100.00
71145;BME280;58812;47.698;17.726;2023-01-30T08:24:14;100440.94;;;-2.55;100.00
71145;BME280;58812;47.698;17.726;2023-01-30T08:26:40;100444.16;;;-2.48;100.00
71145;BME280;58812;47.698;17.726;2023-01-30T08:29:05;100436.22;;;-2.47;100.00
71145;BME280;58812;47.698;17.726;2023-01-30T08:31:31;100434.28;;;-2.42;100.00
71145;BME280;58812;47.698;17.726;2023-01-30T08:33:56;100445.31;;;-2.33;100.00
71145;BME280;58812;47.698;17.726;2023-01-30T08:36:21;100447.00;;;-2.32;100.00
71145;BME280;58812;47.698;17.726;2023-01-30T08:38:47;100447.50;;;-2.23;100.00
71145;BME280;58812;47.698;17.726;2023-01-30T08:41:12;100461.22;;;-2.16;100.00
71145;BME280;58812;47.698;17.726;2023-01-30T08:43:38;100462.00;;;-2.14;100.00
71145;BME280;58812;47.698;17.726;2023-01-30T08:46:03;100479.00;;;-2.01;100.00
71145;BME280;58812;47.698;17.726;2023-01-30T08:48:29;100470.44;;;-2.06;100.00
71145;BME280;58812;47.698;17.726;2023-01-30T08:50:55;100465.06;;;-2.03;100.00
71145;BME280;58812;47.698;17.726;2023-01-30T08:53:21;100452.88;;;-2.04;100.00
71145;BME280;58812;47.698;17.726;2023-01-30T08:55:51;100458.97;;;-2.03;100.00
71145;BME280;58812;47.698;17.726;2023-01-30T08:58:16;100459.34;;;-2.12;100.00
71145;BME280;58812;47.698;17.726;2023-01-30T09:00:42;100445.25;;;-2.10;100.00
71145;BME280;58812;47.698;17.726;2023-01-30T09:03:09;100459.31;;;-1.91;100.00
71145;BME280;58812;47.698;17.726;2023-01-30T09:05:36;100451.69;;;-1.97;100.00
71145;BME280;58812;47.698;17.726;2023-01-30T09:08:01;100438.56;;;-1.97;100.00
71145;BME280;58812;47.698;17.726;2023-01-30T09:10:27;100439.66;;;-2.01;100.00
71145;BME280;58812;47.698;17.726;2023-01-30T09:12:53;100434.66;;;-2.07;100.00
71145;BME280;58812;47.698;17.726;2023-01-30T09:15:19;100429.00;;;-1.98;100.00
71145;BME280;58812;47.698;17.726;2023-01-30T09:17:44;100422.72;;;-1.94;100.00
71145;BME280;58812;47.698;17.726;2023-01-30T09:20:10;100430.16;;;-1.83;100.00
71145;BME280;58812;47.698;17.726;2023-01-30T09:22:37;100428.41;;;-1.84;100.00
71145;BME280;58812;47.698;17.726;2023-01-30T09:25:03;100412.91;;;-1.89;100.00
71145;BME280;58812;47.698;17.726;2023-01-30T09:27:29;100423.56;;;-1.73;100.00
71145;BME280;58812;47.698;17.726;2023-01-30T09:29:54;100405.53;;;-1.80;100.00
71145;BME280;58812;47.698;17.726;2023-01-30T09:32:20;100390.97;;;-1.47;100.00
71145;BME280;58812;47.698;17.726;2023-01-30T09:34:46;100397.94;;;-1.06;100.00
71145;BME280;58812;47.698;17.726;2023-01-30T09:37:11;100394.84;;;-0.78;100.00
71145;BME280;58812;47.698;17.726;2023-01-30T09:39:36;100386.47;;;-0.68;99.18
71145;BME280;58812;47.698;17.726;2023-01-30T09:42:39;100396.34;;;-0.54;99.41
71145;BME280;58812;47.698;17.726;2023-01-30T09:45:25;100382.66;;;0.28;96.66
71145;BME280;58812;47.698;17.726;2023-01-30T09:51:18;100389.91;;;0.57;93.65
71145;BME280;58812;47.698;17.726;2023-01-30T09:54:01;100386.19;;;0.61;93.40
71145;BME280;58812;47.698;17.726;2023-01-30T09:56:29;100383.78;;;0.90;91.16
71145;BME280;58812;47.698;17.726;2023-01-30T09:58:59;100377.06;;;1.00;90.04
71145;BME280;58812;47.698;17.726;2023-01-30T10:01:47;100371.12;;;0.96;89.04
71145;BME280;58812;47.698;17.726;2023-01-30T10:07:17;100343.34;;;0.24;92.74
71145;BME280;58812;47.698;17.726;2023-01-30T10:12:34;100341.75;;;0.38;91.70
71145;BME280;58812;47.698;17.726;2023-01-30T10:15:15;100335.97;;;0.31;92.21
71145;BME280;58812;47.698;17.726;2023-01-30T10:21:07;100315.94;;;0.93;90.87
71145;BME280;58812;47.698;17.726;2023-01-30T10:26:14;100290.34;;;0.79;89.87
71145;BME280;58812;47.698;17.726;2023-01-30T10:28:56;100289.31;;;1.29;89.85
71145;BME280;58812;47.698;17.726;2023-01-30T10:31:27;100269.25;;;1.11;89.77
71145;BME280;58812;47.698;17.726;2023-01-30T10:33:58;100260.47;;;1.72;87.45
71145;BME280;58812;47.698;17.726;2023-01-30T10:36:42;100274.50;;;1.73;86.34
71145;BME280;58812;47.698;17.726;2023-01-30T10:42:03;100254.47;;;2.56;84.00
71145;BME280;58812;47.698;17.726;2023-01-30T10:44:32;100259.38;;;2.48;83.23
71145;BME280;58812;47.698;17.726;2023-01-30T10:47:23;100256.59;;;2.92;80.67
71145;BME280;58812;47.698;17.726;2023-01-30T10:49:52;100249.72;;;2.75;81.60
71145;BME280;58812;47.698;17.726;2023-01-30T10:55:09;100230.06;;;1.35;88.28
71145;BME280;58812;47.698;17.726;2023-01-30T10:58:32;100227.75;;;0.99;90.37
71145;BME280;58812;47.698;17.726;2023-01-30T11:00:50;100212.41;;;0.75;91.90
71145;BME280;58812;47.698;17.726;2023-01-30T11:06:05;100188.00;;;0.56;94.89
71145;BME280;58812;47.698;17.726;2023-01-30T11:08:34;100178.50;;;0.53;94.40
71145;BME280;58812;47.698;17.726;2023-01-30T11:11:00;100163.22;;;0.60;95.12
71145;BME280;58812;47.698;17.726;2023-01-30T11:13:30;100150.94;;;0.59;93.96
71145;BME280;58812;47.698;17.726;2023-01-30T11:16:07;100146.22;;;0.50;94.45
71145;BME280;58812;47.698;17.726;2023-01-30T11:18:43;100144.03;;;0.42;95.68
71145;BME280;58812;47.698;17.726;2023-01-30T11:21:17;100141.44;;;0.41;95.68
71145;BME280;58812;47.698;17.726;2023-01-30T11:23:44;100125.16;;;0.50;95.63
71145;BME280;58812;47.698;17.726;2023-01-30T11:28:49;100134.66;;;0.37;95.78
71145;BME280;58812;47.698;17.726;2023-01-30T11:31:21;100131.09;;;0.38;95.84
71145;BME280;58812;47.698;17.726;2023-01-30T11:34:00;100104.94;;;0.35;96.30
71145;BME280;58812;47.698;17.726;2023-01-30T11:36:29;100109.84;;;0.41;96.30
71145;BME280;58812;47.698;17.726;2023-01-30T11:41:22;100100.25;;;0.40;95.74
71145;BME280;58812;47.698;17.726;2023-01-30T11:43:48;100092.19;;;0.43;95.53
71145;BME280;58812;47.698;17.726;2023-01-30T11:46:19;100080.38;;;0.34;96.85
71145;BME280;58812;47.698;17.726;2023-01-30T11:48:55;100072.91;;;0.26;97.30
71145;BME280;58812;47.698;17.726;2023-01-30T11:51:23;100059.91;;;0.23;97.18
71145;BME280;58812;47.698;17.726;2023-01-30T11:53:55;100054.50;;;0.26;97.25
71145;BME280;58812;47.698;17.726;2023-01-30T11:59:00;100042.09;;;0.29;97.28
71145;BME280;58812;47.698;17.726;2023-01-30T12:01:32;100022.72;;;0.30;97.69
71145;BME280;58812;47.698;17.726;2023-01-30T12:04:00;100017.13;;;0.20;97.91
71145;BME280;58812;47.698;17.726;2023-01-30T12:06:32;100018.34;;;0.14;98.22
71145;BME280;58812;47.698;17.726;2023-01-30T12:08:58;100002.69;;;0.11;98.34
71145;BME280;58812;47.698;17.726;2023-01-30T12:11:40;99994.41;;;0.03;97.87
71145;BME280;58812;47.698;17.726;2023-01-30T12:16:59;99992.72;;;0.02;99.34
71145;BME280;58812;47.698;17.726;2023-01-30T12:19:35;99993.66;;;0.01;99.31
71145;BME280;58812;47.698;17.726;2023-01-30T12:22:58;99994.59;;;0.00;99.54
71145;BME280;58812;47.698;17.726;2023-01-30T12:28:21;99977.56;;;0.06;99.74
71145;BME280;58812;47.698;17.726;2023-01-30T12:30:55;99984.56;;;0.07;99.63
71145;BME280;58812;47.698;17.726;2023-01-30T12:33:27;99967.72;;;0.09;99.57
71145;BME280;58812;47.698;17.726;2023-01-30T12:36:05;99982.50;;;0.12;99.58
71145;BME280;58812;47.698;17.726;2023-01-30T12:45:22;99961.13;;;0.18;99.89
71145;BME280;58812;47.698;17.726;2023-01-30T12:50:28;99961.13;;;0.18;99.06
71145;BME280;58812;47.698;17.726;2023-01-30T12:53:08;99947.28;;;0.14;98.94
71145;BME280;58812;47.698;17.726;2023-01-30T13:03:34;99952.94;;;0.22;98.69
71145;BME280;58812;47.698;17.726;2023-01-30T13:06:14;99958.88;;;0.26;97.78
71145;BME280;58812;47.698;17.726;2023-01-30T13:12:02;99953.41;;;0.29;97.71
71145;BME280;58812;47.698;17.726;2023-01-30T13:23:09;99967.09;;;0.36;96.58
71145;BME280;58812;47.698;17.726;2023-01-30T13:26:09;99971.22;;;0.40;95.58
71145;BME280;58812;47.698;17.726;2023-01-30T13:28:56;99964.28;;;0.39;95.28
71145;BME280;58812;47.698;17.726;2023-01-30T13:31:25;99969.00;;;0.48;95.35
71145;BME280;58812;47.698;17.726;2023-01-30T13:34:16;99968.91;;;0.49;95.42
71145;BME280;58812;47.698;17.726;2023-01-30T13:37:16;99973.06;;;0.53;95.37
71145;BME280;58812;47.698;17.726;2023-01-30T13:39:43;99977.31;;;0.56;94.96
71145;BME280;58812;47.698;17.726;2023-01-30T13:42:31;99973.72;;;0.57;95.16
71145;BME280;58812;47.698;17.726;2023-01-30T13:45:00;99975.41;;;0.58;94.87
71145;BME280;58812;47.698;17.726;2023-01-30T13:48:21;99970.63;;;0.65;94.90
71145;BME280;58812;47.698;17.726;2023-01-30T13:53:24;99968.50;;;0.71;95.64
71145;BME280;58812;47.698;17.726;2023-01-30T14:09:34;99965.31;;;0.80;95.52
71145;BME280;58812;47.698;17.726;2023-01-30T14:12:00;99957.03;;;0.72;95.24
71145;BME280;58812;47.698;17.726;2023-01-30T14:14:36;99971.69;;;0.76;95.32
71145;BME280;58812;47.698;17.726;2023-01-30T14:17:10;99973.47;;;0.76;95.25
71145;BME280;58812;47.698;17.726;2023-01-30T14:22:55;99974.16;;;0.79;94.88
71145;BME280;58812;47.698;17.726;2023-01-30T14:33:31;99972.47;;;0.78;95.53
71145;BME280;58812;47.698;17.726;2023-01-30T14:38:34;99996.75;;;0.84;95.88
71145;BME280;58812;47.698;17.726;2023-01-30T14:51:41;100001.38;;;0.64;100.00
71145;BME280;58812;47.698;17.726;2023-01-30T14:56:58;100002.31;;;0.49;100.00
71145;BME280;58812;47.698;17.726;2023-01-30T15:04:23;99993.50;;;0.34;100.00
71145;BME280;58812;47.698;17.726;2023-01-30T15:06:50;99993.75;;;0.30;100.00